Terminal Aerodrome Forecast
Issued by NWS Jackson, KY

Home | Current Version | Previous Version | Text Only | Print | Product List | Glossary On
Versions: 1 2 3 4 5 6 7 8 9 10 11 12 13 14 15 16 17 18 19 20 21 22 23 24 25 26
690
FTUS43 KJKL 122013 AAA
TAFLOZ
TAF AMD
KLOZ 122013Z 1220/1318 29009KT P6SM VCSH SCT008 OVC015
     FM130500 32007KT P6SM BKN030
     FM131400 VRB05KT P6SM SCT030=

USA.gov is the U.S. government's official web portal to all federal, state and local government web resources and services.